LiveATC.Net - Listen to live air traffic control over the Internet!


ICAO: ESOE  IATA: ORB   Airport: Orebro Airport
City: Orebro
Country: Sweden   Continent: Europe
ESOE METAR Weather: ESOE 241520Z AUTO 22010KT 9999 BKN019/// BKN055/// 11/07 Q1018
ESOE Flight Activity (FlightAware)

ESOE Tower/Control
Feed Status: UP   Listeners: 0
Listen in your browser - HTML5 player (in browser, HTML5)
Click here to listen with your own player (launches your MP3 player)
Archive Access: ESOE Tower/Control
FacilityFrequency
Orebro Tower120.275
Orebro Tower120.280
Sweden Control131.125
Sweden Control (aircraft only)131.125

NOTICE

Unauthorized use prohibited. See LiveATC.net Terms of Service


Airport/ARTCC Code
Frequency Search
(e.g., 124.400, 128.75)
Site-wide search
 


Browse Feeds
Top 50 Feeds
HF Oceanic Feeds
Coverage Map
Bad Weather Areas

LiveATC FAQ
Offer LiveATC feed
Contact LiveATC.net
Press Inquiries

LiveATC on iPhone
LiveATC on Android

Windows Phone
Windows 8/10

LiveATC Mobile
(Mobile browser)

ATC Audio Archives
Interesting Recordings

LiveATC Forums


Home Page
About LiveATC.net
Make a Donation
Terms of Use
Privacy Policy

Canadian Air Freqs

AIRMETs/SIGMETs

FAA Airport Status
NAS Status
Arrival Demand


Server Software By:
Icecast.org
Liquidsoap